Time;durP1;ratioP1;P1;durP2;ratioP2;P2;SDS_P1;SDS_P2;PMS_P1;PMS_P2;Temp;Humidity;BMP_temperature;BMP_pressure;BME280_temperature;BME280_humidity;BME280_pressure;Samples;Min_cycle;Max_cycle;Signal;HPM_P1;HPM_P2
2022/08/08 00:01:27;;;;;;;5.53;3.10;;;13.60;99.90;;;;;;5042427;28;20057;-64
2022/08/08 00:04:17;;;;;;;7.15;3.38;;;13.50;99.90;;;;;;5042555;28;20087;-64
2022/08/08 00:06:49;;;;;;;6.68;3.25;;;13.40;99.90;;;;;;5016818;28;20077;-65
2022/08/08 00:09:27;;;;;;;5.93;3.28;;;13.40;99.90;;;;;;5024993;28;20120;-64
2022/08/08 00:12:04;;;;;;;6.60;4.00;;;13.50;99.90;;;;;;5025959;28;20057;-64
2022/08/08 00:14:51;;;;;;;4.43;3.53;;;13.50;99.90;;;;;;5026982;28;20053;-64
2022/08/08 00:17:37;;;;;;;6.35;3.55;;;13.40;99.90;;;;;;5102868;28;20071;-64
2022/08/08 00:20:07;;;;;;;6.05;3.33;;;13.20;99.90;;;;;;5103556;28;20063;-64
2022/08/08 00:22:47;;;;;;;9.82;4.55;;;13.00;99.90;;;;;;5100955;28;20033;-64
2022/08/08 00:25:21;;;;;;;5.00;3.45;;;12.90;99.90;;;;;;5102693;28;20083;-65
2022/08/08 00:27:50;;;;;;;3.70;3.00;;;12.80;99.90;;;;;;5103975;28;20063;-64
2022/08/08 00:30:16;;;;;;;8.25;3.75;;;12.60;99.90;;;;;;5099781;28;20638;-64
2022/08/08 00:33:04;;;;;;;5.03;3.60;;;12.60;99.90;;;;;;5101137;28;20071;-64
2022/08/08 00:35:54;;;;;;;6.43;3.75;;;12.60;99.90;;;;;;5103753;28;20039;-64
2022/08/08 00:38:35;;;;;;;5.40;3.65;;;12.70;99.90;;;;;;5096375;28;20102;-64
2022/08/08 00:41:13;;;;;;;5.10;4.30;;;12.60;99.90;;;;;;5101174;28;20078;-64
2022/08/08 00:44:03;;;;;;;5.53;4.10;;;12.70;99.90;;;;;;5100713;28;20040;-65
2022/08/08 00:46:48;;;;;;;5.90;3.55;;;12.80;99.90;;;;;;5098547;28;20048;-64
2022/08/08 00:49:34;;;;;;;6.78;4.15;;;12.80;99.90;;;;;;5102788;28;20051;-64
2022/08/08 00:52:06;;;;;;;4.53;3.45;;;12.80;99.90;;;;;;5091991;28;20127;-64
2022/08/08 00:54:47;;;;;;;4.72;3.80;;;12.90;99.90;;;;;;5096025;28;20059;-64
2022/08/08 00:57:39;;;;;;;4.05;3.20;;;12.90;99.90;;;;;;5095011;28;20056;-64
2022/08/08 01:00:19;;;;;;;5.97;3.70;;;12.70;99.90;;;;;;5102516;28;20416;-64
2022/08/08 01:03:03;;;;;;;5.30;3.47;;;12.60;99.90;;;;;;5102981;28;20066;-64
2022/08/08 01:05:47;;;;;;;6.60;5.40;;;12.60;99.90;;;;;;5097488;28;20048;-64
2022/08/08 01:08:22;;;;;;;6.97;5.07;;;12.60;99.90;;;;;;5096447;28;20044;-64
2022/08/08 01:11:21;;;;;;;6.57;3.55;;;12.40;99.90;;;;;;5097593;28;20104;-64
2022/08/08 01:14:06;;;;;;;;;;;12.30;99.90;;;;;;5102854;28;20050;-64
2022/08/08 01:17:18;;;;;;;59.50;7.85;;;12.40;99.90;;;;;;5101468;28;19920;-64
2022/08/08 01:20:27;;;;;;;8.18;4.97;;;12.40;99.90;;;;;;5102871;28;20059;-64
2022/08/08 01:23:19;;;;;;;9.23;4.10;;;12.50;99.90;;;;;;5099269;28;20056;-64
2022/08/08 01:26:29;;;;;;;4.82;4.13;;;12.60;99.90;;;;;;5100947;28;20415;-64
2022/08/08 01:29:07;;;;;;;6.63;4.03;;;12.50;99.90;;;;;;5089954;28;20049;-64
2022/08/08 01:32:30;;;;;;;6.20;4.28;;;12.50;99.90;;;;;;5075185;28;20047;-64
2022/08/08 01:35:20;;;;;;;6.43;4.13;;;12.50;99.90;;;;;;5024256;28;20045;-64
2022/08/08 01:37:51;;;;;;;4.47;4.00;;;12.40;99.90;;;;;;5018334;28;20176;-64
2022/08/08 01:40:35;;;;;;;7.63;4.32;;;12.40;99.90;;;;;;5025767;28;20053;-64
2022/08/08 01:43:19;;;;;;;4.80;3.80;;;12.50;99.90;;;;;;5041231;28;20417;-64
2022/08/08 01:45:57;;;;;;;5.47;4.28;;;12.40;99.90;;;;;;5018213;28;20049;-64
2022/08/08 01:49:19;;;;;;;8.10;4.07;;;12.40;99.90;;;;;;5038529;28;20057;-64
2022/08/08 01:52:03;;;;;;;5.43;3.53;;;12.30;99.90;;;;;;4999150;28;20047;-65
2022/08/08 01:54:56;;;;;;;4.30;3.35;;;12.10;99.90;;;;;;4988516;28;20118;-64
2022/08/08 01:57:47;;;;;;;5.38;3.35;;;11.90;99.90;;;;;;4996970;28;20054;-64
2022/08/08 02:00:20;;;;;;;6.55;3.65;;;11.70;99.90;;;;;;4980626;28;20061;-64
2022/08/08 02:03:03;;;;;;;4.47;3.05;;;11.70;99.90;;;;;;4981369;28;20077;-64
2022/08/08 02:05:55;;;;;;;4.47;3.40;;;11.70;99.90;;;;;;5004848;28;20093;-64
2022/08/08 02:08:33;;;;;;;5.68;3.65;;;11.80;99.90;;;;;;5036012;28;20125;-64
2022/08/08 02:11:17;;;;;;;5.70;3.92;;;11.80;99.90;;;;;;5034176;28;20150;-64
2022/08/08 02:13:56;;;;;;;6.32;4.22;;;11.80;99.90;;;;;;5035675;28;20486;-64
2022/08/08 02:16:35;;;;;;;6.85;5.72;;;11.80;99.90;;;;;;5035072;28;20065;-64
2022/08/08 02:19:11;;;;;;;12.52;4.80;;;11.90;99.90;;;;;;5039904;28;20071;-64
2022/08/08 02:24:45;;;;;;;8.23;5.50;;;11.80;99.90;;;;;;5091223;28;20051;-64
2022/08/08 02:27:17;;;;;;;7.82;6.20;;;11.80;99.90;;;;;;5098265;28;20063;-65
2022/08/08 02:30:04;;;;;;;9.00;6.75;;;11.90;99.90;;;;;;5097730;28;20048;-64
2022/08/08 02:32:41;;;;;;;8.27;6.82;;;12.00;99.90;;;;;;5103777;28;20055;-64
2022/08/08 02:35:44;;;;;;;5.38;4.85;;;12.00;99.90;;;;;;5103928;28;20059;-64
2022/08/08 02:38:15;;;;;;;8.02;4.90;;;11.90;99.90;;;;;;5098430;28;20048;-64
2022/08/08 02:41:07;;;;;;;7.65;5.50;;;11.80;99.90;;;;;;5099057;28;20051;-64
2022/08/08 02:43:56;;;;;;;6.95;5.90;;;11.70;99.90;;;;;;5103823;28;20056;-64
2022/08/08 02:47:06;;;;;;;6.65;5.10;;;11.80;99.90;;;;;;5095030;28;20122;-64
2022/08/08 02:49:50;;;;;;;6.13;5.43;;;11.80;99.90;;;;;;5071725;28;20060;-64
2022/08/08 02:52:40;;;;;;;6.57;5.43;;;11.80;99.90;;;;;;5091343;28;20055;-64
2022/08/08 02:55:42;;;;;;;6.55;5.82;;;11.60;99.90;;;;;;5102347;28;20047;-64
2022/08/08 02:58:17;;;;;;;6.38;5.07;;;11.50;99.90;;;;;;5093050;28;20059;-64
2022/08/08 03:01:01;;;;;;;6.22;5.32;;;11.40;99.90;;;;;;5093895;28;20052;-64
2022/08/08 03:03:52;;;;;;;6.55;5.80;;;11.50;99.90;;;;;;5103495;28;20049;-64
2022/08/08 03:06:55;;;;;;;10.80;5.95;;;11.60;99.90;;;;;;5098097;28;20250;-64
2022/08/08 03:10:16;;;;;;;10.90;6.47;;;11.70;99.90;;;;;;5101654;28;20056;-64
2022/08/08 03:12:52;;;;;;;5.80;4.38;;;11.80;99.90;;;;;;5093040;28;20056;-64
2022/08/08 03:15:36;;;;;;;6.13;4.43;;;11.60;99.90;;;;;;5091598;28;20269;-64
2022/08/08 03:18:14;;;;;;;6.43;5.15;;;11.50;99.90;;;;;;5103906;28;20043;-64
2022/08/08 03:20:46;;;;;;;7.10;5.32;;;11.40;99.90;;;;;;5079746;28;20041;-64
2022/08/08 03:23:13;;;;;;;7.22;5.10;;;11.40;99.90;;;;;;5097927;28;20079;-64
2022/08/08 03:25:41;;;;;;;7.88;5.40;;;11.30;99.90;;;;;;5098496;28;20120;-64
2022/08/08 03:28:24;;;;;;;7.53;5.60;;;11.40;99.90;;;;;;5103376;28;20096;-64
2022/08/08 03:30:52;;;;;;;8.68;5.43;;;11.50;99.90;;;;;;5101818;28;20055;-64
2022/08/08 03:33:18;;;;;;;6.57;5.00;;;11.60;99.90;;;;;;5094771;28;20044;-64
2022/08/08 03:35:46;;;;;;;5.72;4.43;;;11.60;99.90;;;;;;5105024;28;20074;-64
2022/08/08 03:38:12;;;;;;;6.80;4.85;;;11.40;99.90;;;;;;5102846;28;20071;-64
2022/08/08 03:40:38;;;;;;;6.72;4.68;;;11.30;99.90;;;;;;5100413;28;20496;-64
2022/08/08 03:43:06;;;;;;;8.02;5.00;;;11.30;99.90;;;;;;5101766;28;20048;-64
2022/08/08 03:45:32;;;;;;;7.50;4.60;;;11.40;99.90;;;;;;5094726;28;20119;-64
2022/08/08 03:48:08;;;;;;;5.50;4.50;;;11.40;99.90;;;;;;5098060;28;20591;-64
2022/08/08 03:50:40;;;;;;;4.70;3.95;;;11.30;99.90;;;;;;5093780;28;20044;-64
2022/08/08 03:53:11;;;;;;;7.50;4.65;;;11.10;99.90;;;;;;5101417;28;20032;-64
2022/08/08 03:55:39;;;;;;;5.32;4.65;;;11.10;99.90;;;;;;5099496;28;20059;-64
2022/08/08 03:58:05;;;;;;;7.70;4.22;;;11.10;99.90;;;;;;5100722;28;20082;-64
2022/08/08 04:00:31;;;;;;;6.47;5.10;;;11.10;99.90;;;;;;5105059;28;20061;-64
2022/08/08 04:03:01;;;;;;;5.13;4.53;;;11.10;99.90;;;;;;5102821;28;20492;-64
2022/08/08 04:05:31;;;;;;;9.43;4.30;;;11.00;99.90;;;;;;5098338;28;20043;-64
2022/08/08 04:07:59;;;;;;;6.38;4.85;;;11.00;99.90;;;;;;5102456;28;20044;-64
2022/08/08 04:10:26;;;;;;;8.70;5.43;;;11.10;99.90;;;;;;5102071;28;20058;-64
2022/08/08 04:12:53;;;;;;;7.15;5.38;;;11.20;99.90;;;;;;5101290;28;20055;-64
2022/08/08 04:15:19;;;;;;;6.38;4.68;;;11.20;99.90;;;;;;5105756;28;20040;-64
2022/08/08 04:17:45;;;;;;;5.95;4.15;;;11.30;99.90;;;;;;5098581;28;20065;-64
2022/08/08 04:20:11;;;;;;;7.78;4.47;;;11.20;99.90;;;;;;5102199;28;20411;-64
2022/08/08 04:22:37;;;;;;;13.40;5.00;;;11.10;99.90;;;;;;5104014;28;20047;-64
2022/08/08 04:25:03;;;;;;;9.63;4.65;;;11.20;99.90;;;;;;5097431;28;20055;-64
2022/08/08 04:27:30;;;;;;;7.18;4.68;;;11.20;99.90;;;;;;5095541;28;20047;-64
2022/08/08 04:29:56;;;;;;;13.10;6.78;;;11.20;99.90;;;;;;5101133;28;20051;-64
2022/08/08 04:32:21;;;;;;;7.25;5.72;;;11.30;99.90;;;;;;5103815;28;20141;-64
2022/08/08 04:34:47;;;;;;;9.10;6.65;;;11.40;99.90;;;;;;5099198;28;20047;-64
2022/08/08 04:37:13;;;;;;;8.27;6.57;;;11.40;99.90;;;;;;5080806;28;20528;-64
2022/08/08 04:39:39;;;;;;;10.70;6.13;;;11.40;99.90;;;;;;5105825;28;20051;-64
2022/08/08 04:42:06;;;;;;;7.15;5.80;;;11.50;99.90;;;;;;5101585;28;20054;-64
2022/08/08 04:44:32;;;;;;;8.77;5.85;;;11.50;99.90;;;;;;5104115;28;20066;-64
2022/08/08 04:46:58;;;;;;;7.57;5.45;;;11.50;99.90;;;;;;5101747;28;20516;-64
2022/08/08 04:49:23;;;;;;;8.10;5.25;;;11.60;99.90;;;;;;5102269;28;20134;-64
2022/08/08 04:51:49;;;;;;;6.93;4.85;;;11.60;99.90;;;;;;5103047;28;20080;-64
2022/08/08 04:54:15;;;;;;;9.02;5.05;;;11.50;99.90;;;;;;5103752;28;20090;-64
2022/08/08 04:56:41;;;;;;;7.32;6.13;;;11.50;99.90;;;;;;5103072;28;20036;-64
2022/08/08 04:59:06;;;;;;;6.28;5.45;;;11.50;99.90;;;;;;5097579;28;20062;-64
2022/08/08 05:01:32;;;;;;;9.13;5.95;;;11.60;99.90;;;;;;5098271;28;20135;-64
2022/08/08 05:03:58;;;;;;;7.43;6.30;;;11.70;99.90;;;;;;5098375;28;20263;-64
2022/08/08 05:06:23;;;;;;;7.03;5.63;;;11.70;99.90;;;;;;5093013;28;20075;-64
2022/08/08 05:08:49;;;;;;;7.07;6.22;;;11.80;99.90;;;;;;5098640;28;20719;-64
2022/08/08 05:11:15;;;;;;;7.40;6.00;;;11.80;99.90;;;;;;5101489;28;20048;-64
2022/08/08 05:13:41;;;;;;;8.32;6.13;;;11.80;99.90;;;;;;5101748;28;20047;-64
2022/08/08 05:16:08;;;;;;;7.57;6.40;;;11.90;99.90;;;;;;5092831;28;20068;-64
2022/08/08 05:18:38;;;;;;;6.70;6.00;;;11.80;99.90;;;;;;5098327;28;20036;-64
2022/08/08 05:21:05;;;;;;;11.32;6.80;;;11.80;99.90;;;;;;5100901;28;20570;-64
2022/08/08 05:23:31;;;;;;;15.77;5.90;;;11.90;99.90;;;;;;5099636;28;20044;-64
2022/08/08 05:25:58;;;;;;;8.10;5.60;;;12.00;99.90;;;;;;5096002;28;20040;-64
2022/08/08 05:28:24;;;;;;;9.57;6.32;;;11.90;99.90;;;;;;5098280;28;20064;-64
2022/08/08 05:30:50;;;;;;;9.07;6.45;;;12.00;99.90;;;;;;5098927;28;20058;-64
2022/08/08 05:33:16;;;;;;;9.15;6.45;;;12.00;99.90;;;;;;5099117;28;20100;-64
2022/08/08 05:35:43;;;;;;;8.55;6.72;;;12.00;99.90;;;;;;5104372;28;20032;-64
2022/08/08 05:38:13;;;;;;;9.45;7.55;;;12.10;99.90;;;;;;5102154;28;20507;-64
2022/08/08 05:40:45;;;;;;;8.10;6.85;;;12.20;99.90;;;;;;5099574;28;20066;-64
2022/08/08 05:43:39;;;;;;;11.10;7.70;;;12.30;99.90;;;;;;5104041;28;20101;-64
2022/08/08 05:46:07;;;;;;;9.35;7.82;;;12.50;99.90;;;;;;5096997;28;20056;-64
2022/08/08 05:48:33;;;;;;;9.40;6.68;;;12.60;99.90;;;;;;5092770;28;20415;-64
2022/08/08 05:50:58;;;;;;;10.43;7.78;;;12.70;99.90;;;;;;5101460;28;20076;-64
2022/08/08 05:53:27;;;;;;;13.00;8.70;;;12.90;99.90;;;;;;5102782;28;20053;-64
2022/08/08 05:55:55;;;;;;;12.00;8.07;;;13.00;99.90;;;;;;5100141;28;20043;-64
2022/08/08 05:58:31;;;;;;;9.85;7.95;;;13.00;99.90;;;;;;5102024;28;20048;-64
2022/08/08 06:01:00;;;;;;;9.82;6.68;;;13.00;99.90;;;;;;5100853;28;20051;-64
2022/08/08 06:03:26;;;;;;;14.18;8.00;;;13.10;99.90;;;;;;5101641;28;20098;-64
2022/08/08 06:06:05;;;;;;;9.77;7.57;;;13.10;99.90;;;;;;5102633;28;20496;-64
2022/08/08 06:08:53;;;;;;;12.43;7.30;;;13.20;99.90;;;;;;5094585;28;20048;-64
2022/08/08 06:11:19;;;;;;;10.20;8.00;;;13.30;99.90;;;;;;5107593;28;20048;-64
2022/08/08 06:13:46;;;;;;;9.70;7.85;;;13.30;99.90;;;;;;5094594;28;20047;-64
2022/08/08 06:16:12;;;;;;;14.55;9.20;;;13.40;99.90;;;;;;5108372;28;20055;-64
2022/08/08 06:18:40;;;;;;;9.57;7.13;;;13.50;99.90;;;;;;5087450;28;20048;-64
2022/08/08 06:21:08;;;;;;;9.85;6.25;;;13.60;99.90;;;;;;5100847;28;20062;-64
2022/08/08 06:23:34;;;;;;;9.95;6.47;;;13.70;99.90;;;;;;5104049;28;20040;-64
2022/08/08 06:26:06;;;;;;;14.05;8.55;;;13.90;99.90;;;;;;5104249;28;20094;-64
2022/08/08 06:28:36;;;;;;;13.68;8.32;;;14.10;99.90;;;;;;5099746;28;20048;-64
2022/08/08 06:31:05;;;;;;;10.55;8.38;;;14.20;99.90;;;;;;5099894;28;20043;-64
2022/08/08 06:33:48;;;;;;;10.25;8.43;;;14.40;99.90;;;;;;5102557;28;20095;-64
2022/08/08 06:36:25;;;;;;;12.10;7.72;;;14.60;99.90;;;;;;5099484;28;20076;-64
2022/08/08 06:38:54;;;;;;;17.15;8.75;;;14.70;99.90;;;;;;5103709;28;20071;-64
2022/08/08 06:41:19;;;;;;;11.13;7.90;;;14.90;99.90;;;;;;5100476;28;20062;-64
2022/08/08 06:43:50;;;;;;;9.52;6.68;;;15.00;99.90;;;;;;5105244;28;20052;-64
2022/08/08 06:46:16;;;;;;;7.95;5.07;;;15.20;99.90;;;;;;5103180;28;20377;-64
2022/08/08 06:48:42;;;;;;;13.38;7.22;;;15.30;99.90;;;;;;5094098;28;20044;-64
2022/08/08 06:51:10;;;;;;;11.43;6.47;;;15.40;99.90;;;;;;5102059;28;20060;-64
2022/08/08 06:53:36;;;;;;;6.47;4.55;;;15.50;99.90;;;;;;5103361;28;20044;-64
2022/08/08 06:56:02;;;;;;;9.23;5.20;;;15.60;99.90;;;;;;5102282;28;20036;-64
2022/08/08 06:58:27;;;;;;;11.45;4.80;;;15.70;99.90;;;;;;5101404;28;20032;-64
2022/08/08 07:00:55;;;;;;;12.40;5.38;;;15.80;99.90;;;;;;5102205;28;20048;-64
2022/08/08 07:03:59;;;;;;;7.40;3.60;;;16.00;99.90;;;;;;5092803;28;20048;-64
2022/08/08 07:06:30;;;;;;;7.90;3.65;;;16.20;99.90;;;;;;5093220;28;20047;-64
2022/08/08 07:09:18;;;;;;;9.07;3.13;;;16.40;99.90;;;;;;5105073;28;20051;-64
2022/08/08 07:11:49;;;;;;;9.73;3.35;;;16.50;99.90;;;;;;5105880;28;20055;-64
2022/08/08 07:14:26;;;;;;;9.52;3.75;;;16.60;99.90;;;;;;5100929;28;20044;-64
2022/08/08 07:16:54;;;;;;;8.75;3.15;;;16.70;99.90;;;;;;5085041;28;20055;-64
2022/08/08 07:19:38;;;;;;;7.07;2.50;;;16.80;99.90;;;;;;5092889;28;20043;-64
2022/08/08 07:22:08;;;;;;;8.93;3.20;;;16.90;99.90;;;;;;5101205;28;20405;-64
2022/08/08 07:24:48;;;;;;;7.13;2.78;;;17.00;99.90;;;;;;5100773;28;20141;-64
2022/08/08 07:27:20;;;;;;;8.90;3.08;;;17.10;99.90;;;;;;5102770;28;20059;-64
2022/08/08 07:29:46;;;;;;;9.10;2.85;;;17.20;99.90;;;;;;5105460;28;20084;-64
2022/08/08 07:32:14;;;;;;;8.13;2.80;;;17.30;99.90;;;;;;5101451;28;20047;-64
2022/08/08 07:34:41;;;;;;;9.48;2.85;;;17.30;99.90;;;;;;5099648;28;20095;-64
2022/08/08 07:37:09;;;;;;;12.00;3.20;;;17.30;99.90;;;;;;5102593;28;20089;-64
2022/08/08 07:39:38;;;;;;;7.93;3.00;;;17.30;99.90;;;;;;5103616;28;20122;-64
2022/08/08 07:42:05;;;;;;;10.15;4.55;;;17.50;99.90;;;;;;5101063;28;20071;-64
2022/08/08 07:44:31;;;;;;;6.60;3.22;;;17.50;99.90;;;;;;5098942;28;20051;-64
2022/08/08 07:46:57;;;;;;;10.02;3.25;;;17.50;99.90;;;;;;5094307;28;20040;-64
2022/08/08 07:49:22;;;;;;;8.50;2.65;;;17.70;99.90;;;;;;5098694;28;20044;-64
2022/08/08 07:51:49;;;;;;;8.80;2.40;;;17.70;99.90;;;;;;5096772;28;20048;-64
2022/08/08 07:54:38;;;;;;;4.65;2.47;;;17.70;99.90;;;;;;5091196;28;20142;-64
2022/08/08 07:57:36;;;;;;;5.53;1.98;;;17.70;99.90;;;;;;5102903;28;20056;-64
2022/08/08 08:00:14;;;;;;;8.80;2.20;;;17.70;99.90;;;;;;5068812;28;20055;-64
2022/08/08 08:02:45;;;;;;;7.07;2.30;;;17.80;99.90;;;;;;5103662;28;20040;-64
2022/08/08 08:05:22;;;;;;;7.63;3.03;;;17.90;99.90;;;;;;5101298;28;20172;-64
2022/08/08 08:07:52;;;;;;;6.03;2.88;;;18.00;99.90;;;;;;5090394;28;20044;-64
2022/08/08 08:10:19;;;;;;;5.95;2.58;;;18.00;99.90;;;;;;5107431;28;20096;-64
2022/08/08 08:12:55;;;;;;;8.57;2.10;;;18.20;99.90;;;;;;5089119;28;20053;-64
2022/08/08 08:15:25;;;;;;;5.60;2.28;;;18.20;99.90;;;;;;5096258;28;20063;-64
2022/08/08 08:17:57;;;;;;;7.10;2.17;;;18.20;99.90;;;;;;5090466;28;20104;-64
2022/08/08 08:20:27;;;;;;;4.15;2.00;;;18.40;99.90;;;;;;5103410;28;20050;-64
2022/08/08 08:22:53;;;;;;;6.18;2.38;;;18.50;99.90;;;;;;5100574;28;20047;-64
2022/08/08 08:25:18;;;;;;;4.35;2.30;;;18.60;99.90;;;;;;5101072;28;20036;-64
2022/08/08 08:27:44;;;;;;;6.35;2.50;;;18.70;99.90;;;;;;5101302;28;20530;-64
2022/08/08 08:30:10;;;;;;;6.60;2.60;;;18.80;99.90;;;;;;5102081;28;20111;-64
2022/08/08 08:32:36;;;;;;;6.43;2.28;;;18.90;99.90;;;;;;5104429;28;20072;-64
2022/08/08 08:35:03;;;;;;;5.40;2.35;;;19.00;99.90;;;;;;5099627;28;20052;-64
2022/08/08 08:37:29;;;;;;;5.80;2.28;;;19.20;99.90;;;;;;5103359;28;20040;-64
2022/08/08 08:39:55;;;;;;;5.85;2.63;;;19.30;99.90;;;;;;5103936;28;20051;-64
2022/08/08 08:42:24;;;;;;;5.35;2.13;;;19.40;99.90;;;;;;5097052;28;20044;-64
2022/08/08 08:44:50;;;;;;;5.38;1.98;;;19.50;99.90;;;;;;5091136;28;20583;-64
2022/08/08 08:47:18;;;;;;;5.60;2.00;;;19.50;99.90;;;;;;5097410;28;20212;-64
2022/08/08 08:49:43;;;;;;;7.47;2.42;;;19.70;99.90;;;;;;5103288;28;20048;-64
2022/08/08 08:52:12;;;;;;;7.05;2.53;;;19.80;99.90;;;;;;5101060;28;20056;-64
2022/08/08 08:54:38;;;;;;;6.35;2.17;;;20.00;99.90;;;;;;5104395;28;20054;-64
2022/08/08 08:57:07;;;;;;;6.53;2.33;;;20.10;99.90;;;;;;5103941;28;20075;-64
2022/08/08 08:59:38;;;;;;;4.38;2.30;;;20.20;99.90;;;;;;5101818;28;20116;-64
2022/08/08 09:02:05;;;;;;;8.10;2.67;;;20.20;99.90;;;;;;5102464;28;20040;-64
2022/08/08 09:04:34;;;;;;;5.10;1.95;;;20.20;99.90;;;;;;5098820;28;20051;-64
2022/08/08 09:07:02;;;;;;;7.80;2.25;;;20.20;99.90;;;;;;5089338;28;20070;-64
2022/08/08 09:09:30;;;;;;;4.72;1.90;;;20.20;99.90;;;;;;5102573;28;20116;-64
2022/08/08 09:12:00;;;;;;;4.68;2.20;;;20.20;99.90;;;;;;5090333;28;20042;-65
2022/08/08 09:14:26;;;;;;;5.35;2.05;;;20.30;99.90;;;;;;5088086;28;20048;-64
2022/08/08 09:16:53;;;;;;;3.35;1.30;;;20.30;99.90;;;;;;5097473;28;20552;-64
2022/08/08 09:19:19;;;;;;;4.25;1.77;;;20.50;99.90;;;;;;5102189;28;20062;-64
2022/08/08 09:21:46;;;;;;;6.35;1.85;;;20.60;99.90;;;;;;5097306;28;20040;-64
2022/08/08 09:24:13;;;;;;;4.13;1.60;;;20.50;99.90;;;;;;5110073;28;20111;-64
2022/08/08 09:26:58;;;;;;;8.48;2.00;;;20.50;99.90;;;;;;5099821;28;20077;-65
2022/08/08 09:29:24;;;;;;;4.70;1.90;;;20.60;99.90;;;;;;5092657;28;20084;-64
2022/08/08 09:32:09;;;;;;;4.32;1.88;;;20.60;99.90;;;;;;5100390;28;20044;-64
2022/08/08 09:34:37;;;;;;;5.05;1.52;;;20.70;99.90;;;;;;5099223;28;20040;-64
2022/08/08 09:37:08;;;;;;;4.57;1.83;;;20.80;99.90;;;;;;5103462;28;20044;-65
2022/08/08 09:39:58;;;;;;;3.53;1.80;;;21.00;99.90;;;;;;5072257;28;20618;-65
2022/08/08 09:42:35;;;;;;;5.97;1.65;;;21.10;99.90;;;;;;5105177;28;20052;-65
2022/08/08 09:45:22;;;;;;;3.55;1.48;;;21.00;99.90;;;;;;5092752;28;20071;-64
2022/08/08 09:47:48;;;;;;;4.60;1.75;;;21.10;99.90;;;;;;5101969;28;20050;-64
2022/08/08 09:50:17;;;;;;;5.40;1.55;;;21.10;99.90;;;;;;5099604;28;20052;-64
2022/08/08 09:52:49;;;;;;;4.20;1.52;;;21.10;99.90;;;;;;5097998;28;20045;-64
2022/08/08 09:55:15;;;;;;;3.67;1.73;;;21.00;99.90;;;;;;5070358;28;20040;-64
2022/08/08 09:57:45;;;;;;;4.70;1.92;;;20.90;99.90;;;;;;5103056;28;20040;-65
2022/08/08 10:00:13;;;;;;;3.22;1.55;;;20.80;99.90;;;;;;5099589;28;20105;-64
2022/08/08 10:02:50;;;;;;;4.93;1.75;;;20.60;99.90;;;;;;5115501;28;20050;-64
2022/08/08 10:05:21;;;;;;;4.82;1.77;;;20.60;99.90;;;;;;5101998;28;20044;-64
2022/08/08 10:07:50;;;;;;;5.25;1.80;;;20.40;99.90;;;;;;5105583;28;20036;-64
2022/08/08 10:10:31;;;;;;;3.22;1.88;;;20.40;99.90;;;;;;5103974;28;20083;-64
2022/08/08 10:12:58;;;;;;;4.53;1.75;;;20.30;99.90;;;;;;5098878;28;20047;-64
2022/08/08 10:15:35;;;;;;;5.78;2.22;;;20.20;99.90;;;;;;5094490;28;20060;-64
2022/08/08 10:18:01;;;;;;;3.22;1.98;;;20.20;99.90;;;;;;5100860;28;20036;-64
2022/08/08 10:20:28;;;;;;;4.18;2.10;;;20.10;99.90;;;;;;5106220;28;20044;-64
2022/08/08 10:22:58;;;;;;;3.97;1.73;;;20.10;99.90;;;;;;5103472;28;20051;-65
2022/08/08 10:25:23;;;;;;;;;;;20.10;99.90;;;;;;5102613;28;20235;-65
2022/08/08 10:27:52;;;;;;;4.78;1.70;;;20.10;99.90;;;;;;5100346;28;19920;-64
2022/08/08 10:30:19;;;;;;;7.03;1.95;;;20.20;99.90;;;;;;5105323;28;20060;-64
2022/08/08 10:32:56;;;;;;;4.25;1.55;;;20.20;99.90;;;;;;5108098;28;20040;-64
2022/08/08 10:35:25;;;;;;;3.00;1.40;;;20.20;99.90;;;;;;5106869;28;20052;-64
2022/08/08 10:38:00;;;;;;;4.35;1.55;;;20.30;99.90;;;;;;5104931;28;20043;-64
2022/08/08 10:40:30;;;;;;;6.10;1.50;;;20.30;99.90;;;;;;5102567;28;20040;-64
2022/08/08 10:42:59;;;;;;;3.65;1.33;;;20.40;99.90;;;;;;5094966;28;20040;-64
2022/08/08 10:45:25;;;;;;;4.53;1.40;;;20.50;99.90;;;;;;5103729;28;20047;-64
2022/08/08 10:47:57;;;;;;;6.72;1.55;;;20.60;99.90;;;;;;5105052;28;20073;-64
2022/08/08 10:50:34;;;;;;;3.20;1.50;;;20.70;99.90;;;;;;5096030;28;20049;-64
2022/08/08 10:53:11;;;;;;;4.10;1.52;;;20.80;99.90;;;;;;5102591;28;20115;-64
2022/08/08 10:55:38;;;;;;;1.85;1.25;;;20.80;99.90;;;;;;5100285;28;20080;-65
2022/08/08 10:58:06;;;;;;;4.82;1.70;;;20.90;99.90;;;;;;5098242;28;20056;-65
2022/08/08 11:00:33;;;;;;;3.20;1.23;;;21.00;99.90;;;;;;5100063;28;20389;-65
2022/08/08 11:03:11;;;;;;;2.95;1.38;;;21.10;99.90;;;;;;5099366;28;20059;-65
2022/08/08 11:06:05;;;;;;;4.03;1.30;;;21.20;99.90;;;;;;5104947;28;20040;-65
2022/08/08 11:08:30;;;;;;;1.30;1.20;;;21.30;99.90;;;;;;5102498;28;20078;-64
2022/08/08 11:11:04;;;;;;;2.78;1.15;;;21.40;99.90;;;;;;5094443;28;20040;-64
2022/08/08 11:13:38;;;;;;;2.38;1.10;;;21.40;99.90;;;;;;5098531;28;20127;-64
2022/08/08 11:16:04;;;;;;;1.75;1.20;;;21.50;99.90;;;;;;5096643;28;20240;-65
2022/08/08 11:18:33;;;;;;;3.25;1.30;;;21.60;99.90;;;;;;5102950;28;20054;-64
2022/08/08 11:21:02;;;;;;;2.55;1.10;;;21.70;99.90;;;;;;5096558;28;20526;-64
2022/08/08 11:23:32;;;;;;;2.85;1.48;;;21.80;99.90;;;;;;5105172;28;20045;-64
2022/08/08 11:26:02;;;;;;;3.90;1.60;;;22.00;99.90;;;;;;5102924;28;20040;-65
2022/08/08 11:28:31;;;;;;;3.03;1.30;;;22.30;99.90;;;;;;5103154;28;20052;-64
2022/08/08 11:30:59;;;;;;;4.80;1.40;;;22.40;99.90;;;;;;5098458;28;20044;-64
2022/08/08 11:33:27;;;;;;;2.92;1.08;;;22.50;99.90;;;;;;5103727;28;20071;-64
2022/08/08 11:35:55;;;;;;;2.08;1.10;;;22.70;99.90;;;;;;5105186;28;20040;-64
2022/08/08 11:38:21;;;;;;;2.60;1.00;;;22.80;99.90;;;;;;5105584;28;20050;-64
2022/08/08 11:40:48;;;;;;;1.20;0.95;;;22.90;99.90;;;;;;5104455;28;20492;-65
2022/08/08 11:43:16;;;;;;;2.15;1.00;;;22.90;99.90;;;;;;5098032;28;20111;-65
2022/08/08 11:45:46;;;;;;;3.33;1.40;;;23.00;99.90;;;;;;5087669;28;20048;-65
2022/08/08 11:48:13;;;;;;;2.95;1.00;;;23.10;99.90;;;;;;5101358;28;20039;-64
2022/08/08 11:50:40;;;;;;;1.95;1.00;;;23.10;99.90;;;;;;5095720;28;20045;-64
2022/08/08 11:53:07;;;;;;;1.33;0.75;;;23.10;99.90;;;;;;5105167;28;20054;-65
2022/08/08 11:55:34;;;;;;;2.92;1.15;;;23.00;99.90;;;;;;5096945;28;20103;-64
2022/08/08 11:58:08;;;;;;;1.52;1.00;;;22.90;99.90;;;;;;5083848;28;20100;-65
2022/08/08 12:00:45;;;;;;;4.13;1.25;;;22.90;99.90;;;;;;5099172;28;20070;-64
2022/08/08 12:03:21;;;;;;;1.90;1.25;;;22.80;99.90;;;;;;5101208;28;20057;-65
2022/08/08 12:05:47;;;;;;;3.05;0.98;;;22.80;99.90;;;;;;5101491;28;20141;-65
2022/08/08 12:08:14;;;;;;;2.13;0.98;;;22.90;99.90;;;;;;5106026;28;20032;-65
2022/08/08 12:10:51;;;;;;;2.22;1.08;;;22.90;99.90;;;;;;5100260;28;20047;-65
2022/08/08 12:13:24;;;;;;;3.67;1.10;;;22.90;99.90;;;;;;5104773;28;20047;-64
2022/08/08 12:15:51;;;;;;;3.55;1.45;;;22.90;99.90;;;;;;5092304;28;20044;-64
2022/08/08 12:18:19;;;;;;;3.25;1.50;;;22.90;99.90;;;;;;5099158;28;20076;-65
2022/08/08 12:20:45;;;;;;;2.30;0.90;;;22.90;99.90;;;;;;5103124;28;20048;-65
2022/08/08 12:23:11;;;;;;;1.73;1.15;;;22.90;99.90;;;;;;5100781;28;20456;-65
2022/08/08 12:25:36;;;;;;;3.55;1.33;;;23.00;99.90;;;;;;5101393;28;20176;-65
2022/08/08 12:28:14;;;;;;;6.63;1.63;;;23.20;99.90;;;;;;5092263;28;20079;-64
2022/08/08 12:30:43;;;;;;;2.20;1.38;;;23.30;99.90;;;;;;5091060;28;20495;-65
2022/08/08 12:33:23;;;;;;;3.58;1.38;;;23.40;99.90;;;;;;5100254;28;20079;-65
2022/08/08 12:35:49;;;;;;;4.82;1.52;;;23.50;99.90;;;;;;5097326;28;20157;-65
2022/08/08 12:38:15;;;;;;;3.38;1.30;;;23.60;99.90;;;;;;5099237;28;20043;-65
2022/08/08 12:40:46;;;;;;;2.05;1.20;;;23.70;99.90;;;;;;5083888;28;20116;-65
2022/08/08 12:43:12;;;;;;;3.33;1.10;;;23.80;99.90;;;;;;5101174;28;20051;-65
2022/08/08 12:45:43;;;;;;;2.70;1.30;;;23.90;99.90;;;;;;5096299;28;20063;-65
2022/08/08 12:48:21;;;;;;;3.70;1.65;;;24.00;99.90;;;;;;5101468;28;20504;-65
2022/08/08 12:50:53;;;;;;;4.95;1.30;;;24.20;99.90;;;;;;5099746;28;20404;-65
2022/08/08 12:53:32;;;;;;;6.45;1.30;;;24.30;99.90;;;;;;5095103;28;20056;-65
2022/08/08 12:56:01;;;;;;;2.90;1.10;;;24.30;99.90;;;;;;5091815;28;20047;-65
2022/08/08 12:58:28;;;;;;;3.42;1.40;;;24.40;99.90;;;;;;5100346;28;20044;-65
2022/08/08 13:00:54;;;;;;;3.28;1.20;;;24.30;99.90;;;;;;5101422;28;20052;-65
2022/08/08 13:03:31;;;;;;;4.55;1.40;;;24.20;99.90;;;;;;5099359;28;20037;-65
2022/08/08 13:06:05;;;;;;;4.45;1.70;;;24.20;99.90;;;;;;5095497;28;20095;-65
2022/08/08 13:09:06;;;;;;;3.20;1.25;;;24.10;99.90;;;;;;5101187;28;20062;-65
2022/08/08 13:11:34;;;;;;;4.35;1.25;;;24.00;99.90;;;;;;5084093;28;20052;-65
2022/08/08 13:14:14;;;;;;;1.88;1.00;;;24.00;99.90;;;;;;5102226;28;20052;-65
2022/08/08 13:16:41;;;;;;;3.03;1.33;;;23.90;99.90;;;;;;5102286;28;20103;-65
2022/08/08 13:19:09;;;;;;;2.35;1.25;;;23.80;99.90;;;;;;5102940;28;20058;-65
2022/08/08 13:21:46;;;;;;;2.88;1.17;;;23.70;99.90;;;;;;5104415;28;20449;-65